createdAt,value
2019-04-05T00:02:26.422Z,7.10
2019-04-05T00:04:54.223Z,7.10
2019-04-05T00:07:22.428Z,7.20
2019-04-05T00:09:50.580Z,7.10
2019-04-05T00:12:18.672Z,7.10
2019-04-05T00:14:46.501Z,7.10
2019-04-05T00:17:14.379Z,7.20
2019-04-05T00:19:42.637Z,7.10
2019-04-05T00:22:10.542Z,7.10
2019-04-05T00:24:38.364Z,7.10
2019-04-05T00:27:06.169Z,7.20
2019-04-05T00:29:34.038Z,7.20
2019-04-05T00:32:02.511Z,7.10
2019-04-05T00:34:30.290Z,7.10
2019-04-05T00:36:58.160Z,7.10
2019-04-05T00:39:25.982Z,7.20
2019-04-05T00:41:54.126Z,7.10
2019-04-05T00:44:21.961Z,7.10
2019-04-05T00:46:50.065Z,7.10
2019-04-05T00:49:17.845Z,7.10
2019-04-05T00:51:46.046Z,7.10
2019-04-05T00:54:14.159Z,7.10
2019-04-05T00:56:42.001Z,7.10
2019-04-05T00:59:09.777Z,7.10
2019-04-05T01:01:37.668Z,7.00
2019-04-05T01:04:05.696Z,7.10
2019-04-05T01:06:33.580Z,7.10
2019-04-05T01:09:02.472Z,7.10
2019-04-05T01:11:30.278Z,7.20
2019-04-05T01:13:58.390Z,7.20
2019-04-05T01:16:26.679Z,7.10
2019-04-05T01:18:54.755Z,7.10
2019-04-05T01:21:24.357Z,7.10
2019-04-05T01:23:53.909Z,7.10
2019-04-05T01:26:23.424Z,7.10
2019-04-05T01:28:51.595Z,7.10
2019-04-05T01:31:19.423Z,7.10
2019-04-05T01:33:47.208Z,7.10
2019-04-05T01:36:15.053Z,7.10
2019-04-05T01:38:42.829Z,7.10
2019-04-05T01:41:11.194Z,7.10
2019-04-05T01:43:38.984Z,7.10
2019-04-05T01:46:07.373Z,7.10
2019-04-05T01:48:35.202Z,7.10
2019-04-05T01:51:03.714Z,7.10
2019-04-05T01:53:31.987Z,7.10
2019-04-05T01:56:00.262Z,7.10
2019-04-05T01:58:28.097Z,7.10
2019-04-05T02:00:55.986Z,7.10
2019-04-05T02:03:24.160Z,7.10
2019-04-05T02:05:52.017Z,7.20
2019-04-05T02:08:20.044Z,7.20
2019-04-05T02:10:48.020Z,7.10
2019-04-05T02:13:16.031Z,7.10
2019-04-05T02:15:43.922Z,7.10
2019-04-05T02:18:11.836Z,7.10
2019-04-05T02:20:39.730Z,7.00
2019-04-05T02:23:07.838Z,7.00
2019-04-05T02:25:35.919Z,7.00
2019-04-05T02:28:03.797Z,6.90
2019-04-05T02:30:32.314Z,6.80
2019-04-05T02:33:00.561Z,6.80
2019-04-05T02:35:28.785Z,6.80
2019-04-05T02:37:56.578Z,6.60
2019-04-05T02:40:26.251Z,6.60
2019-04-05T02:42:57.032Z,6.60
2019-04-05T02:45:26.733Z,6.60
2019-04-05T02:47:59.348Z,6.60
2019-04-05T02:50:29.750Z,6.60
2019-04-05T02:53:01.351Z,6.60
2019-04-05T02:55:30.552Z,6.60
2019-04-05T02:57:59.161Z,6.50
2019-04-05T03:00:28.516Z,6.50
2019-04-05T03:02:56.684Z,6.50
2019-04-05T03:05:24.872Z,6.50
2019-04-05T03:07:52.767Z,6.40
2019-04-05T03:11:07.231Z,6.40
2019-04-05T03:13:55.647Z,6.30
2019-04-05T03:16:40.746Z,6.30
2019-04-05T03:19:09.323Z,6.20
2019-04-05T03:21:40.995Z,6.10
2019-04-05T03:24:13.698Z,6.00
2019-04-05T03:26:46.374Z,5.90
2019-04-05T03:29:14.819Z,5.80
2019-04-05T03:31:42.945Z,5.70
2019-04-05T03:34:11.809Z,5.60
2019-04-05T03:36:40.198Z,5.50
2019-04-05T03:39:08.728Z,5.40
2019-04-05T03:41:36.981Z,5.40
2019-04-05T03:44:05.556Z,5.30
2019-04-05T03:46:33.449Z,5.30
2019-04-05T03:49:02.617Z,5.20
2019-04-05T03:51:30.931Z,5.20
2019-04-05T03:53:58.922Z,5.20
2019-04-05T03:56:27.027Z,5.20
2019-04-05T03:58:55.024Z,5.10
2019-04-05T04:01:22.914Z,5.10
2019-04-05T04:03:50.850Z,5.00
2019-04-05T04:06:18.717Z,5.00
2019-04-05T04:08:46.850Z,5.00
2019-04-05T04:11:14.734Z,5.00
2019-04-05T04:13:42.828Z,5.10
2019-04-05T04:16:11.723Z,5.00
2019-04-05T04:18:39.595Z,5.10
2019-04-05T04:21:23.557Z,5.10
2019-04-05T04:23:51.397Z,5.10
2019-04-05T04:26:20.002Z,5.10
2019-04-05T04:28:48.638Z,5.10
2019-04-05T04:31:16.626Z,5.10
2019-04-05T04:33:44.680Z,5.00
2019-04-05T04:36:13.253Z,4.90
2019-04-05T04:38:41.562Z,4.90
2019-04-05T04:41:09.580Z,4.90
2019-04-05T04:43:37.481Z,4.90
2019-04-05T04:46:06.419Z,4.80
2019-04-05T04:48:34.884Z,4.80
2019-04-05T04:51:03.336Z,4.80
2019-04-05T04:53:31.546Z,4.80
2019-04-05T04:55:59.597Z,4.90
2019-04-05T04:58:27.588Z,4.80
2019-04-05T05:00:56.160Z,4.80
2019-04-05T05:03:24.051Z,4.80
2019-04-05T05:05:52.052Z,4.90
2019-04-05T05:08:21.197Z,4.80
2019-04-05T05:10:49.619Z,4.90
2019-04-05T05:13:17.880Z,4.80
2019-04-05T05:15:46.681Z,4.80
2019-04-05T05:18:15.073Z,4.80
2019-04-05T05:20:43.401Z,4.90
2019-04-05T05:23:11.674Z,4.90
2019-04-05T05:25:39.821Z,4.90
2019-04-05T05:28:07.899Z,4.80
2019-04-05T05:30:35.789Z,4.80
2019-04-05T05:33:04.139Z,4.80
2019-04-05T05:35:32.504Z,4.90
2019-04-05T05:38:00.706Z,4.90
2019-04-05T05:40:34.703Z,4.90
2019-04-05T05:42:58.530Z,4.90
2019-04-05T05:45:26.453Z,4.90
2019-04-05T05:47:54.370Z,4.90
2019-04-05T05:50:22.189Z,4.90
2019-04-05T05:52:50.545Z,4.80
2019-04-05T05:55:18.412Z,4.80
2019-04-05T05:57:46.223Z,4.80
2019-04-05T06:00:16.193Z,4.70
2019-04-05T06:02:43.988Z,4.70
2019-04-05T06:05:11.868Z,4.80
2019-04-05T06:07:39.721Z,4.80
2019-04-05T06:10:07.896Z,4.90
2019-04-05T06:12:35.773Z,4.90
2019-04-05T06:15:04.998Z,4.90
2019-04-05T06:17:33.232Z,4.80
2019-04-05T06:20:01.227Z,4.80
2019-04-05T06:22:29.034Z,4.80
2019-04-05T06:24:56.837Z,4.90
2019-04-05T06:27:24.697Z,5.00
2019-04-05T06:29:52.479Z,5.00
2019-04-05T06:32:20.351Z,5.00
2019-04-05T06:34:48.170Z,5.00
2019-04-05T06:37:15.958Z,5.10
2019-04-05T06:39:43.866Z,5.10
2019-04-05T06:42:11.796Z,5.20
2019-04-05T06:44:39.574Z,5.30
2019-04-05T06:47:07.377Z,5.40
2019-04-05T06:49:35.266Z,5.40
2019-04-05T06:52:03.059Z,5.40
2019-04-05T06:54:31.304Z,5.50
2019-04-05T06:56:59.613Z,5.50
2019-04-05T06:59:29.679Z,5.50
2019-04-05T07:01:57.469Z,5.50
2019-04-05T07:04:25.318Z,5.40
2019-04-05T07:06:53.116Z,5.50
2019-04-05T07:09:21.377Z,5.50
2019-04-05T07:11:49.224Z,5.60
2019-04-05T07:14:17.007Z,5.50
2019-04-05T07:16:44.954Z,5.50
2019-04-05T07:19:12.995Z,5.40
2019-04-05T07:21:40.990Z,5.40
2019-04-05T07:24:08.777Z,5.40
2019-04-05T07:26:36.655Z,5.50
2019-04-05T07:29:04.440Z,5.60
2019-04-05T07:31:32.243Z,5.60
2019-04-05T07:34:00.154Z,5.60
2019-04-05T07:36:28.014Z,5.70
2019-04-05T07:38:55.819Z,5.90
2019-04-05T07:41:23.663Z,5.90
2019-04-05T07:43:51.505Z,5.90
2019-04-05T07:46:19.301Z,5.90
2019-04-05T07:48:47.132Z,5.90
2019-04-05T07:51:15.035Z,5.80
2019-04-05T07:53:42.845Z,5.80
2019-04-05T07:56:11.060Z,5.80
2019-04-05T07:58:38.950Z,5.70
2019-04-05T08:01:06.876Z,5.70
2019-04-05T08:03:34.810Z,5.80
2019-04-05T08:06:02.925Z,5.70
2019-04-05T08:08:56.561Z,5.80
2019-04-05T08:11:25.787Z,5.80
2019-04-05T08:13:57.852Z,5.80
2019-04-05T08:16:26.708Z,5.80
2019-04-05T08:18:57.882Z,5.80
2019-04-05T08:21:25.800Z,5.90
2019-04-05T08:23:53.638Z,5.90
2019-04-05T08:26:21.480Z,5.90
2019-04-05T08:28:49.285Z,5.90
2019-04-05T08:31:17.500Z,5.90
2019-04-05T08:33:45.326Z,6.00
2019-04-05T08:36:13.105Z,6.00
2019-04-05T08:38:40.964Z,6.10
2019-04-05T08:41:08.751Z,6.20
2019-04-05T08:43:36.556Z,6.20
2019-04-05T08:46:04.545Z,6.30
2019-04-05T08:48:32.314Z,6.30
2019-04-05T08:51:00.639Z,6.40
2019-04-05T08:53:28.500Z,6.50
2019-04-05T08:55:56.570Z,6.60
2019-04-05T08:58:33.410Z,6.60
2019-04-05T09:00:54.470Z,6.60
2019-04-05T09:03:22.302Z,6.60
2019-04-05T09:05:50.343Z,6.60
2019-04-05T09:08:21.088Z,6.70
2019-04-05T09:10:47.710Z,6.80
2019-04-05T09:13:15.566Z,6.90
2019-04-05T09:15:43.942Z,7.10
2019-04-05T09:18:11.852Z,7.20
2019-04-05T09:20:39.676Z,7.10
2019-04-05T09:23:07.470Z,7.10
2019-04-05T09:25:35.330Z,7.10
2019-04-05T09:28:03.120Z,6.90
2019-04-05T09:30:30.920Z,6.90
2019-04-05T09:32:58.784Z,6.90
2019-04-05T09:35:26.583Z,7.00
2019-04-05T09:37:54.390Z,7.20
2019-04-05T09:40:22.194Z,7.30
2019-04-05T09:42:50.000Z,7.40
2019-04-05T09:45:17.817Z,7.50
2019-04-05T09:47:45.683Z,7.60
2019-04-05T09:50:14.468Z,7.60
2019-04-05T09:52:42.235Z,7.50
2019-04-05T09:55:10.151Z,7.50
2019-04-05T09:57:38.364Z,7.50
2019-04-05T10:00:08.740Z,7.50
2019-04-05T10:02:36.586Z,7.60
2019-04-05T10:05:04.716Z,7.50
2019-04-05T10:07:32.504Z,7.50
2019-04-05T10:10:00.814Z,7.50
2019-04-05T10:12:29.192Z,7.50
2019-04-05T10:14:57.135Z,7.50
2019-04-05T10:17:24.957Z,7.50
2019-04-05T10:19:52.980Z,7.50
2019-04-05T10:22:20.849Z,7.50
2019-04-05T10:24:48.692Z,7.60
2019-04-05T10:27:16.519Z,7.40
2019-04-05T10:29:44.386Z,7.40
2019-04-05T10:32:12.179Z,7.50
2019-04-05T10:34:40.013Z,7.50
2019-04-05T10:37:07.861Z,7.50
2019-04-05T10:39:35.753Z,7.60
2019-04-05T10:42:06.154Z,7.70
2019-04-05T10:44:33.937Z,7.70
2019-04-05T10:47:01.936Z,7.60
2019-04-05T10:49:30.137Z,7.70
2019-04-05T10:51:57.981Z,7.90
2019-04-05T10:54:26.314Z,7.90
2019-04-05T10:56:54.126Z,8.00
2019-04-05T10:59:21.948Z,8.10
2019-04-05T11:01:50.073Z,8.00
2019-04-05T11:04:17.945Z,8.00
2019-04-05T11:06:45.765Z,8.00
2019-04-05T11:09:14.014Z,7.90
2019-04-05T11:11:43.487Z,8.00
2019-04-05T11:14:13.863Z,8.10
2019-04-05T11:16:40.980Z,8.10
2019-04-05T11:19:08.810Z,8.20
2019-04-05T11:21:36.740Z,8.20
2019-04-05T11:24:04.887Z,8.20
2019-04-05T11:26:32.711Z,8.20
2019-04-05T11:29:00.706Z,8.10
2019-04-05T11:31:28.759Z,7.90
2019-04-05T11:33:57.378Z,7.90
2019-04-05T11:36:25.856Z,7.90
2019-04-05T11:38:53.747Z,7.90
2019-04-05T11:41:23.084Z,8.00
2019-04-05T11:43:53.504Z,7.90
2019-04-05T11:46:21.474Z,7.90
2019-04-05T11:48:49.856Z,7.90
2019-04-05T11:51:18.075Z,7.80
2019-04-05T11:53:45.926Z,7.80
2019-04-05T11:56:15.243Z,7.70
2019-04-05T11:58:48.655Z,7.60
2019-04-05T12:01:29.215Z,7.70
2019-04-05T12:03:57.012Z,7.40
2019-04-05T12:06:24.806Z,7.40
2019-04-05T12:08:52.755Z,7.30
2019-04-05T12:11:20.708Z,7.20
2019-04-05T12:13:48.521Z,7.20
2019-04-05T12:16:16.371Z,7.30
2019-04-05T12:18:51.545Z,7.40
2019-04-05T12:21:20.875Z,7.50
2019-04-05T12:23:49.022Z,7.60
2019-04-05T12:26:16.854Z,7.60
2019-04-05T12:28:44.788Z,7.70
2019-04-05T12:31:14.159Z,7.70
2019-04-05T12:33:42.047Z,7.70
2019-04-05T12:36:09.956Z,7.80
2019-04-05T12:38:37.741Z,7.80
2019-04-05T12:41:05.624Z,7.80
2019-04-05T12:43:33.562Z,7.70
2019-04-05T12:46:01.491Z,7.70
2019-04-05T12:48:29.329Z,7.60
2019-04-05T12:51:01.210Z,7.70
2019-04-05T12:53:27.016Z,7.70
2019-04-05T12:55:56.866Z,7.60
2019-04-05T12:58:25.885Z,7.60
2019-04-05T13:00:56.234Z,7.70
2019-04-05T13:03:23.792Z,7.80
2019-04-05T13:05:52.104Z,7.70
2019-04-05T13:08:20.866Z,7.70
2019-04-05T13:10:49.676Z,7.60
2019-04-05T13:13:17.435Z,7.70
2019-04-05T13:15:45.220Z,7.60
2019-04-05T13:18:13.065Z,7.50
2019-04-05T13:20:41.109Z,7.40
2019-04-05T13:23:08.951Z,7.30
2019-04-05T13:25:36.769Z,7.30
2019-04-05T13:28:13.192Z,7.30
2019-04-05T13:30:37.257Z,7.30
2019-04-05T13:33:05.538Z,7.20
2019-04-05T13:35:33.400Z,7.20
2019-04-05T13:38:01.407Z,7.20
2019-04-05T13:40:29.576Z,7.10
2019-04-05T13:43:01.392Z,7.00
2019-04-05T13:45:27.763Z,7.00
2019-04-05T13:47:55.594Z,6.90
2019-04-05T13:50:23.657Z,6.80
2019-04-05T13:52:51.566Z,6.60
2019-04-05T13:55:19.351Z,6.50
2019-04-05T13:57:47.166Z,6.50
2019-04-05T14:00:18.197Z,6.60
2019-04-05T14:02:45.431Z,6.50
2019-04-05T14:05:13.306Z,6.60
2019-04-05T14:07:41.199Z,6.40
2019-04-05T14:10:12.330Z,6.30
2019-04-05T14:12:40.224Z,6.20
2019-04-05T14:15:10.722Z,6.10
2019-04-05T14:17:38.167Z,6.00
2019-04-05T14:20:09.115Z,6.00
2019-04-05T14:22:36.864Z,5.90
2019-04-05T14:25:05.618Z,5.90
2019-04-05T14:27:35.225Z,5.90
2019-04-05T14:30:03.627Z,5.90
2019-04-05T14:32:31.409Z,5.90
2019-04-05T14:34:59.248Z,5.80
2019-04-05T14:37:27.069Z,5.80
2019-04-05T14:39:55.153Z,5.80
2019-04-05T14:42:23.083Z,5.70
2019-04-05T14:44:50.907Z,5.70
2019-04-05T14:47:19.998Z,5.60
2019-04-05T14:49:47.962Z,5.50
2019-04-05T14:52:15.792Z,5.50
2019-04-05T14:54:43.605Z,5.40
2019-04-05T14:57:11.471Z,5.40
2019-04-05T14:59:39.275Z,5.40
2019-04-05T15:02:07.202Z,5.30
2019-04-05T15:04:35.067Z,5.30
2019-04-05T15:07:02.857Z,5.20
2019-04-05T15:09:30.648Z,5.20
2019-04-05T15:11:58.755Z,5.10
2019-04-05T15:14:27.181Z,5.10
2019-04-05T15:16:54.965Z,5.00
2019-04-05T15:19:24.452Z,5.00
2019-04-05T15:22:04.853Z,4.90
2019-04-05T15:24:21.937Z,4.90
2019-04-05T15:26:51.505Z,4.80
2019-04-05T15:29:20.066Z,4.80
2019-04-05T15:31:47.923Z,4.80
2019-04-05T15:34:15.828Z,4.60
2019-04-05T15:36:44.111Z,4.70
2019-04-05T15:39:11.918Z,4.80
2019-04-05T15:41:39.755Z,4.80
2019-04-05T15:44:07.989Z,4.70
2019-04-05T15:46:36.043Z,4.70
2019-04-05T15:49:03.861Z,4.60
2019-04-05T15:51:31.662Z,4.60
2019-04-05T15:54:01.511Z,4.50
2019-04-05T15:56:31.254Z,4.40
2019-04-05T15:58:59.209Z,4.40
2019-04-05T16:01:27.191Z,4.40
2019-04-05T16:03:55.141Z,4.40
2019-04-05T16:06:23.028Z,4.30
2019-04-05T16:08:51.112Z,4.30
2019-04-05T16:11:19.014Z,4.40
2019-04-05T16:13:46.958Z,4.40
2019-04-05T16:16:15.052Z,4.40
2019-04-05T16:18:42.871Z,4.40
2019-04-05T16:21:10.758Z,4.40
2019-04-05T16:23:38.758Z,4.40
2019-04-05T16:26:06.654Z,4.40
2019-04-05T16:28:34.961Z,4.40
2019-04-05T16:31:02.917Z,4.30
2019-04-05T16:33:30.825Z,4.30
2019-04-05T16:35:59.275Z,4.30
2019-04-05T16:38:27.537Z,4.20
2019-04-05T16:40:55.432Z,4.20
2019-04-05T16:43:23.436Z,4.20
2019-04-05T16:45:51.369Z,4.20
2019-04-05T16:48:19.367Z,4.10
2019-04-05T16:50:47.279Z,4.10
2019-04-05T16:53:15.112Z,4.10
2019-04-05T16:55:42.892Z,4.10
2019-04-05T16:58:10.790Z,4.20
2019-04-05T17:00:38.713Z,4.10
2019-04-05T17:03:06.602Z,4.10
2019-04-05T17:05:34.467Z,4.10
2019-04-05T17:08:02.480Z,4.10
2019-04-05T17:10:30.424Z,4.00
2019-04-05T17:12:58.228Z,4.00
2019-04-05T17:15:26.028Z,4.00
2019-04-05T17:17:53.914Z,4.00
2019-04-05T17:20:22.331Z,4.00
2019-04-05T17:22:58.097Z,4.00
2019-04-05T17:25:20.986Z,3.90
2019-04-05T17:27:48.801Z,3.90
2019-04-05T17:30:16.681Z,4.00
2019-04-05T17:32:44.611Z,3.90
2019-04-05T17:35:12.540Z,3.80
2019-04-05T17:37:40.457Z,3.80
2019-04-05T17:40:08.604Z,3.80
2019-04-05T17:42:36.518Z,3.80
2019-04-05T17:45:07.156Z,3.80
2019-04-05T17:47:35.180Z,3.90
2019-04-05T17:50:03.686Z,3.90
2019-04-05T17:52:31.892Z,4.00
2019-04-05T17:54:59.793Z,4.00
2019-04-05T17:57:27.741Z,3.90
2019-04-05T17:59:55.732Z,3.90
2019-04-05T18:02:23.603Z,3.90
2019-04-05T18:04:51.495Z,3.90
2019-04-05T18:07:19.296Z,3.90
2019-04-05T18:09:47.151Z,3.90
2019-04-05T18:12:15.274Z,3.80
2019-04-05T18:14:43.180Z,3.90
2019-04-05T18:17:11.028Z,3.90
2019-04-05T18:19:39.050Z,3.90
2019-04-05T18:22:06.995Z,3.90
2019-04-05T18:24:35.031Z,3.90
2019-04-05T18:27:03.226Z,4.00
2019-04-05T18:29:31.092Z,4.00
2019-04-05T18:31:59.226Z,4.00
2019-04-05T18:34:27.589Z,4.00
2019-04-05T18:36:55.589Z,4.00
2019-04-05T18:39:23.573Z,4.10
2019-04-05T18:41:51.384Z,4.10
2019-04-05T18:44:19.258Z,4.10
2019-04-05T18:46:47.618Z,4.00
2019-04-05T18:49:15.605Z,4.00
2019-04-05T18:51:43.558Z,3.90
2019-04-05T18:54:11.397Z,3.90
2019-04-05T18:56:39.246Z,3.90
2019-04-05T18:59:07.180Z,3.90
2019-04-05T19:01:35.118Z,3.90
2019-04-05T19:04:05.411Z,3.90
2019-04-05T19:06:32.823Z,3.80
2019-04-05T19:09:00.818Z,3.80
2019-04-05T19:11:28.583Z,3.90
2019-04-05T19:14:01.326Z,3.90
2019-04-05T19:16:26.569Z,3.90
2019-04-05T19:18:54.394Z,4.00
2019-04-05T19:21:22.243Z,4.00
2019-04-05T19:23:51.283Z,3.90
2019-04-05T19:26:19.419Z,3.90
2019-04-05T19:28:47.236Z,3.90
2019-04-05T19:48:43.107Z,4.00
2019-04-05T19:51:11.002Z,4.00
2019-04-05T19:53:38.810Z,4.10
2019-04-05T19:56:07.666Z,4.10
2019-04-05T19:58:35.568Z,4.10
2019-04-05T20:01:03.507Z,4.10
2019-04-05T20:03:31.426Z,4.20
2019-04-05T20:05:59.245Z,4.20
2019-04-05T20:08:27.238Z,4.20
2019-04-05T20:10:55.170Z,4.20
2019-04-05T20:13:23.078Z,4.10
2019-04-05T20:15:50.895Z,4.10
2019-04-05T20:18:18.777Z,4.20
2019-04-05T20:20:46.790Z,4.10
2019-04-05T20:23:14.623Z,4.20
2019-04-05T20:25:42.490Z,4.20
2019-04-05T20:28:10.383Z,4.30
2019-04-05T20:30:38.245Z,4.40
2019-04-05T20:33:06.080Z,4.30
2019-04-05T20:35:34.042Z,4.40
2019-04-05T20:38:01.924Z,4.30
2019-04-05T20:40:29.793Z,4.30
2019-04-05T20:42:59.781Z,4.20
2019-04-05T20:45:27.300Z,4.30
2019-04-05T20:47:55.199Z,4.30
2019-04-05T20:50:23.288Z,4.30
2019-04-05T20:52:51.216Z,4.40
2019-04-05T20:55:19.595Z,4.50
2019-04-05T20:57:47.598Z,4.50
2019-04-05T21:00:16.142Z,4.50
2019-04-05T21:02:44.516Z,4.40
2019-04-05T21:05:12.410Z,4.40
2019-04-05T21:07:40.448Z,4.30
2019-04-05T21:10:08.668Z,4.30
2019-04-05T21:12:36.452Z,4.30
2019-04-05T21:15:05.121Z,4.30
2019-04-05T21:17:32.953Z,4.30
2019-04-05T21:20:00.803Z,4.20
2019-04-05T21:22:28.698Z,4.30
2019-04-05T21:24:57.084Z,4.20
2019-04-05T21:27:24.917Z,4.20
2019-04-05T21:29:52.770Z,4.20
2019-04-05T21:32:21.095Z,4.10
2019-04-05T21:34:49.157Z,4.10
2019-04-05T21:37:17.009Z,4.10
2019-04-05T21:39:45.058Z,4.10
2019-04-05T21:42:13.422Z,4.10
2019-04-05T21:44:41.329Z,4.10
2019-04-05T21:47:09.146Z,4.10
2019-04-05T21:49:36.952Z,4.10
2019-04-05T21:52:04.841Z,4.10
2019-04-05T21:54:32.639Z,4.10
2019-04-05T21:57:00.493Z,4.00
2019-04-05T21:59:28.308Z,4.10
2019-04-05T22:01:56.342Z,4.00
2019-04-05T22:04:24.155Z,4.10
2019-04-05T22:06:52.480Z,4.10
2019-04-05T22:09:20.401Z,4.10
2019-04-05T22:11:48.205Z,4.10
2019-04-05T22:14:16.050Z,4.10
2019-04-05T22:16:44.334Z,4.10
2019-04-05T22:19:12.472Z,4.10
2019-04-05T22:21:40.300Z,4.10
2019-04-05T22:24:08.395Z,4.10
2019-04-05T22:26:36.274Z,4.00
2019-04-05T22:29:04.080Z,4.00
2019-04-05T22:31:31.864Z,4.10
2019-04-05T22:33:59.736Z,4.10
2019-04-05T22:36:27.892Z,4.10
2019-04-05T22:38:55.851Z,4.10
2019-04-05T22:41:23.787Z,4.20
2019-04-05T22:43:51.575Z,4.20
2019-04-05T22:46:19.395Z,4.20
2019-04-05T22:48:47.565Z,4.10
2019-04-05T22:51:15.374Z,4.10
2019-04-05T22:53:43.159Z,4.10
2019-04-05T22:56:11.014Z,4.00
2019-04-05T22:58:39.014Z,4.00
2019-04-05T23:01:07.148Z,4.00
2019-04-05T23:03:35.029Z,4.00
2019-04-05T23:06:02.806Z,4.00
2019-04-05T23:08:30.659Z,4.10
2019-04-05T23:10:58.434Z,4.10
2019-04-05T23:13:27.188Z,4.10
2019-04-05T23:15:55.331Z,4.10
2019-04-05T23:18:23.100Z,4.10
2019-04-05T23:20:51.042Z,4.20
2019-04-05T23:23:18.952Z,4.20
2019-04-05T23:25:46.723Z,4.20
2019-04-05T23:28:14.619Z,4.20
2019-04-05T23:30:43.161Z,4.20
2019-04-05T23:33:10.996Z,4.20
2019-04-05T23:35:39.248Z,4.20
2019-04-05T23:38:07.068Z,4.20
2019-04-05T23:40:34.982Z,4.20
2019-04-05T23:43:02.804Z,4.20
2019-04-05T23:45:30.913Z,4.20
2019-04-05T23:47:58.749Z,4.10
2019-04-05T23:50:26.539Z,4.00
2019-04-05T23:52:54.384Z,4.00
2019-04-05T23:55:32.497Z,4.00
2019-04-05T23:57:51.907Z,4.00
